sensor_id;sensor_type;location;lat;lon;timestamp;temperature;humidity
15107;DHT22;7654;45.308;-75.096;2023-09-30T00:01:19;14.10;99.90
15107;DHT22;7654;45.308;-75.096;2023-09-30T00:03:50;14.10;99.90
15107;DHT22;7654;45.308;-75.096;2023-09-30T00:06:21;14.10;99.90
15107;DHT22;7654;45.308;-75.096;2023-09-30T00:08:53;14.00;99.90
15107;DHT22;7654;45.308;-75.096;2023-09-30T00:11:24;14.00;99.90
15107;DHT22;7654;45.308;-75.096;2023-09-30T00:13:55;14.00;99.90
15107;DHT22;7654;45.308;-75.096;2023-09-30T00:16:26;13.90;99.90
15107;DHT22;7654;45.308;-75.096;2023-09-30T00:18:59;13.90;99.90
15107;DHT22;7654;45.308;-75.096;2023-09-30T00:21:31;13.80;99.90
15107;DHT22;7654;45.308;-75.096;2023-09-30T00:24:05;13.80;99.90
15107;DHT22;7654;45.308;-75.096;2023-09-30T00:26:35;13.70;99.90
15107;DHT22;7654;45.308;-75.096;2023-09-30T00:29:06;13.70;99.90
15107;DHT22;7654;45.308;-75.096;2023-09-30T00:31:36;13.60;99.90
15107;DHT22;7654;45.308;-75.096;2023-09-30T00:34:07;13.50;99.90
15107;DHT22;7654;45.308;-75.096;2023-09-30T00:36:38;13.50;99.90
15107;DHT22;7654;45.308;-75.096;2023-09-30T00:39:10;13.40;99.90
15107;DHT22;7654;45.308;-75.096;2023-09-30T00:41:41;13.40;99.90
15107;DHT22;7654;45.308;-75.096;2023-09-30T00:44:11;13.40;99.90
15107;DHT22;7654;45.308;-75.096;2023-09-30T00:46:42;13.30;99.90
15107;DHT22;7654;45.308;-75.096;2023-09-30T00:49:16;13.30;99.90
15107;DHT22;7654;45.308;-75.096;2023-09-30T00:51:48;13.20;99.90
15107;DHT22;7654;45.308;-75.096;2023-09-30T00:54:22;13.20;99.90
15107;DHT22;7654;45.308;-75.096;2023-09-30T00:56:55;13.10;99.90
15107;DHT22;7654;45.308;-75.096;2023-09-30T00:59:26;13.10;99.90
15107;DHT22;7654;45.308;-75.096;2023-09-30T01:01:57;13.10;99.90
15107;DHT22;7654;45.308;-75.096;2023-09-30T01:04:28;13.10;99.90
15107;DHT22;7654;45.308;-75.096;2023-09-30T01:06:59;13.10;99.90
15107;DHT22;7654;45.308;-75.096;2023-09-30T01:09:31;13.00;99.90
15107;DHT22;7654;45.308;-75.096;2023-09-30T01:12:02;13.00;99.90
15107;DHT22;7654;45.308;-75.096;2023-09-30T01:14:33;13.00;99.90
15107;DHT22;7654;45.308;-75.096;2023-09-30T01:17:07;13.00;99.90
15107;DHT22;7654;45.308;-75.096;2023-09-30T01:19:40;13.00;99.90
15107;DHT22;7654;45.308;-75.096;2023-09-30T01:22:12;13.00;99.90
15107;DHT22;7654;45.308;-75.096;2023-09-30T01:24:43;12.90;99.90
15107;DHT22;7654;45.308;-75.096;2023-09-30T01:27:15;12.90;99.90
15107;DHT22;7654;45.308;-75.096;2023-09-30T01:29:47;12.90;99.90
15107;DHT22;7654;45.308;-75.096;2023-09-30T01:32:18;13.00;99.90
15107;DHT22;7654;45.308;-75.096;2023-09-30T01:34:49;13.00;99.90
15107;DHT22;7654;45.308;-75.096;2023-09-30T01:37:21;13.00;99.90
15107;DHT22;7654;45.308;-75.096;2023-09-30T01:39:51;13.10;99.90
15107;DHT22;7654;45.308;-75.096;2023-09-30T01:42:23;13.10;99.90
15107;DHT22;7654;45.308;-75.096;2023-09-30T01:44:54;13.20;99.90
15107;DHT22;7654;45.308;-75.096;2023-09-30T01:47:25;13.30;99.90
15107;DHT22;7654;45.308;-75.096;2023-09-30T01:49:56;13.30;99.90
15107;DHT22;7654;45.308;-75.096;2023-09-30T01:52:29;13.40;99.90
15107;DHT22;7654;45.308;-75.096;2023-09-30T01:54:59;13.40;99.90
15107;DHT22;7654;45.308;-75.096;2023-09-30T01:57:30;13.50;99.90
15107;DHT22;7654;45.308;-75.096;2023-09-30T02:00:00;13.50;99.90
15107;DHT22;7654;45.308;-75.096;2023-09-30T02:02:31;13.60;99.90
15107;DHT22;7654;45.308;-75.096;2023-09-30T02:05:01;13.60;99.90
15107;DHT22;7654;45.308;-75.096;2023-09-30T02:07:33;13.70;99.90
15107;DHT22;7654;45.308;-75.096;2023-09-30T02:10:04;13.70;99.90
15107;DHT22;7654;45.308;-75.096;2023-09-30T02:12:35;13.80;99.90
15107;DHT22;7654;45.308;-75.096;2023-09-30T02:15:07;13.80;99.90
15107;DHT22;7654;45.308;-75.096;2023-09-30T02:17:38;13.80;99.90
15107;DHT22;7654;45.308;-75.096;2023-09-30T02:20:09;13.80;99.90
15107;DHT22;7654;45.308;-75.096;2023-09-30T02:22:43;13.70;99.90
15107;DHT22;7654;45.308;-75.096;2023-09-30T02:25:14;13.70;99.90
15107;DHT22;7654;45.308;-75.096;2023-09-30T02:27:45;13.60;99.90
15107;DHT22;7654;45.308;-75.096;2023-09-30T02:30:15;13.70;99.90
15107;DHT22;7654;45.308;-75.096;2023-09-30T02:32:45;13.70;99.90
15107;DHT22;7654;45.308;-75.096;2023-09-30T02:35:16;13.80;99.90
15107;DHT22;7654;45.308;-75.096;2023-09-30T02:37:49;13.80;99.90
15107;DHT22;7654;45.308;-75.096;2023-09-30T02:40:20;13.70;99.90
15107;DHT22;7654;45.308;-75.096;2023-09-30T02:42:53;13.60;99.90
15107;DHT22;7654;45.308;-75.096;2023-09-30T02:45:23;13.60;99.90
15107;DHT22;7654;45.308;-75.096;2023-09-30T02:47:53;13.50;99.90
15107;DHT22;7654;45.308;-75.096;2023-09-30T02:50:24;13.50;99.90
15107;DHT22;7654;45.308;-75.096;2023-09-30T02:52:56;13.40;99.90
15107;DHT22;7654;45.308;-75.096;2023-09-30T02:55:27;13.30;99.90
15107;DHT22;7654;45.308;-75.096;2023-09-30T02:57:57;13.20;99.90
15107;DHT22;7654;45.308;-75.096;2023-09-30T03:00:29;13.10;99.90
15107;DHT22;7654;45.308;-75.096;2023-09-30T03:03:02;13.00;99.90
15107;DHT22;7654;45.308;-75.096;2023-09-30T03:05:32;12.90;99.90
15107;DHT22;7654;45.308;-75.096;2023-09-30T03:08:05;12.80;99.90
15107;DHT22;7654;45.308;-75.096;2023-09-30T03:10:35;12.80;99.90
15107;DHT22;7654;45.308;-75.096;2023-09-30T03:13:09;12.80;99.90
15107;DHT22;7654;45.308;-75.096;2023-09-30T03:15:39;12.80;99.90
15107;DHT22;7654;45.308;-75.096;2023-09-30T03:18:11;12.90;99.90
15107;DHT22;7654;45.308;-75.096;2023-09-30T03:20:42;12.80;99.90
15107;DHT22;7654;45.308;-75.096;2023-09-30T03:23:14;12.70;99.90
15107;DHT22;7654;45.308;-75.096;2023-09-30T03:25:45;12.50;99.90
15107;DHT22;7654;45.308;-75.096;2023-09-30T03:28:16;12.40;99.90
15107;DHT22;7654;45.308;-75.096;2023-09-30T03:30:46;12.30;99.90
15107;DHT22;7654;45.308;-75.096;2023-09-30T03:33:18;12.30;99.90
15107;DHT22;7654;45.308;-75.096;2023-09-30T03:35:48;12.20;99.90
15107;DHT22;7654;45.308;-75.096;2023-09-30T03:38:21;12.20;99.90
15107;DHT22;7654;45.308;-75.096;2023-09-30T03:40:52;12.10;99.90
15107;DHT22;7654;45.308;-75.096;2023-09-30T03:43:24;12.10;99.90
15107;DHT22;7654;45.308;-75.096;2023-09-30T03:45:55;12.10;99.90
15107;DHT22;7654;45.308;-75.096;2023-09-30T03:48:26;12.00;99.90
15107;DHT22;7654;45.308;-75.096;2023-09-30T03:50:56;12.00;99.90
15107;DHT22;7654;45.308;-75.096;2023-09-30T03:53:29;12.00;99.90
15107;DHT22;7654;45.308;-75.096;2023-09-30T03:55:59;12.00;99.90
15107;DHT22;7654;45.308;-75.096;2023-09-30T03:58:31;12.00;99.90
15107;DHT22;7654;45.308;-75.096;2023-09-30T04:01:01;12.00;99.90
15107;DHT22;7654;45.308;-75.096;2023-09-30T04:03:32;11.90;99.90
15107;DHT22;7654;45.308;-75.096;2023-09-30T04:06:03;11.80;99.90
15107;DHT22;7654;45.308;-75.096;2023-09-30T04:08:35;11.80;99.90
15107;DHT22;7654;45.308;-75.096;2023-09-30T04:11:06;11.80;99.90
15107;DHT22;7654;45.308;-75.096;2023-09-30T04:13:38;11.70;99.90
15107;DHT22;7654;45.308;-75.096;2023-09-30T04:16:08;11.70;99.90
15107;DHT22;7654;45.308;-75.096;2023-09-30T04:18:38;11.70;99.90
15107;DHT22;7654;45.308;-75.096;2023-09-30T04:21:10;11.70;99.90
15107;DHT22;7654;45.308;-75.096;2023-09-30T04:23:42;11.60;99.90
15107;DHT22;7654;45.308;-75.096;2023-09-30T04:26:12;11.50;99.90
15107;DHT22;7654;45.308;-75.096;2023-09-30T04:28:43;11.50;99.90
15107;DHT22;7654;45.308;-75.096;2023-09-30T04:31:13;11.50;99.90
15107;DHT22;7654;45.308;-75.096;2023-09-30T04:33:44;11.50;99.90
15107;DHT22;7654;45.308;-75.096;2023-09-30T04:36:15;11.40;99.90
15107;DHT22;7654;45.308;-75.096;2023-09-30T04:38:47;11.40;99.90
15107;DHT22;7654;45.308;-75.096;2023-09-30T04:41:18;11.40;99.90
15107;DHT22;7654;45.308;-75.096;2023-09-30T04:43:49;11.40;99.90
15107;DHT22;7654;45.308;-75.096;2023-09-30T04:46:21;11.30;99.90
15107;DHT22;7654;45.308;-75.096;2023-09-30T04:48:52;11.30;99.90
15107;DHT22;7654;45.308;-75.096;2023-09-30T04:51:22;11.30;99.90
15107;DHT22;7654;45.308;-75.096;2023-09-30T04:53:55;11.30;99.90
15107;DHT22;7654;45.308;-75.096;2023-09-30T04:56:27;11.30;99.90
15107;DHT22;7654;45.308;-75.096;2023-09-30T04:58:58;11.30;99.90
15107;DHT22;7654;45.308;-75.096;2023-09-30T05:01:29;11.30;99.90
15107;DHT22;7654;45.308;-75.096;2023-09-30T05:03:59;11.30;99.90
15107;DHT22;7654;45.308;-75.096;2023-09-30T05:06:32;11.30;99.90
15107;DHT22;7654;45.308;-75.096;2023-09-30T05:09:04;11.30;99.90
15107;DHT22;7654;45.308;-75.096;2023-09-30T05:11:35;11.30;99.90
15107;DHT22;7654;45.308;-75.096;2023-09-30T05:14:05;11.30;99.90
15107;DHT22;7654;45.308;-75.096;2023-09-30T05:16:36;11.30;99.90
15107;DHT22;7654;45.308;-75.096;2023-09-30T05:19:06;11.30;99.90
15107;DHT22;7654;45.308;-75.096;2023-09-30T05:21:36;11.30;99.90
15107;DHT22;7654;45.308;-75.096;2023-09-30T05:24:09;11.30;99.90
15107;DHT22;7654;45.308;-75.096;2023-09-30T05:26:40;11.30;99.90
15107;DHT22;7654;45.308;-75.096;2023-09-30T05:29:10;11.30;99.90
15107;DHT22;7654;45.308;-75.096;2023-09-30T05:31:41;11.30;99.90
15107;DHT22;7654;45.308;-75.096;2023-09-30T05:34:12;11.30;99.90
15107;DHT22;7654;45.308;-75.096;2023-09-30T05:36:42;11.30;99.90
15107;DHT22;7654;45.308;-75.096;2023-09-30T05:39:14;11.30;99.90
15107;DHT22;7654;45.308;-75.096;2023-09-30T05:41:48;11.30;99.90
15107;DHT22;7654;45.308;-75.096;2023-09-30T05:44:19;11.20;99.90
15107;DHT22;7654;45.308;-75.096;2023-09-30T05:46:50;11.20;99.90
15107;DHT22;7654;45.308;-75.096;2023-09-30T05:49:21;11.20;99.90
15107;DHT22;7654;45.308;-75.096;2023-09-30T05:51:52;11.30;99.90
15107;DHT22;7654;45.308;-75.096;2023-09-30T05:54:25;11.30;99.90
15107;DHT22;7654;45.308;-75.096;2023-09-30T05:56:57;11.30;99.90
15107;DHT22;7654;45.308;-75.096;2023-09-30T05:59:29;11.30;99.90
15107;DHT22;7654;45.308;-75.096;2023-09-30T06:01:59;11.20;99.90
15107;DHT22;7654;45.308;-75.096;2023-09-30T06:04:31;11.20;99.90
15107;DHT22;7654;45.308;-75.096;2023-09-30T06:07:02;11.20;99.90
15107;DHT22;7654;45.308;-75.096;2023-09-30T06:09:34;11.20;99.90
15107;DHT22;7654;45.308;-75.096;2023-09-30T06:12:05;11.20;99.90
15107;DHT22;7654;45.308;-75.096;2023-09-30T06:14:35;11.10;99.90
15107;DHT22;7654;45.308;-75.096;2023-09-30T06:17:06;11.10;99.90
15107;DHT22;7654;45.308;-75.096;2023-09-30T06:19:37;11.00;99.90
15107;DHT22;7654;45.308;-75.096;2023-09-30T06:22:08;11.00;99.90
15107;DHT22;7654;45.308;-75.096;2023-09-30T06:24:40;11.00;99.90
15107;DHT22;7654;45.308;-75.096;2023-09-30T06:27:10;10.90;99.90
15107;DHT22;7654;45.308;-75.096;2023-09-30T06:29:42;11.00;99.90
15107;DHT22;7654;45.308;-75.096;2023-09-30T06:32:12;10.90;99.90
15107;DHT22;7654;45.308;-75.096;2023-09-30T06:34:43;10.90;99.90
15107;DHT22;7654;45.308;-75.096;2023-09-30T06:37:14;10.90;99.90
15107;DHT22;7654;45.308;-75.096;2023-09-30T06:39:46;10.90;99.90
15107;DHT22;7654;45.308;-75.096;2023-09-30T06:42:17;10.90;99.90
15107;DHT22;7654;45.308;-75.096;2023-09-30T06:44:47;10.80;99.90
15107;DHT22;7654;45.308;-75.096;2023-09-30T06:47:17;10.70;99.90
15107;DHT22;7654;45.308;-75.096;2023-09-30T06:49:49;10.70;99.90
15107;DHT22;7654;45.308;-75.096;2023-09-30T06:52:19;10.70;99.90
15107;DHT22;7654;45.308;-75.096;2023-09-30T06:54:51;10.70;99.90
15107;DHT22;7654;45.308;-75.096;2023-09-30T06:57:22;10.60;99.90
15107;DHT22;7654;45.308;-75.096;2023-09-30T06:59:53;10.60;99.90
15107;DHT22;7654;45.308;-75.096;2023-09-30T07:02:23;10.50;99.90
15107;DHT22;7654;45.308;-75.096;2023-09-30T07:04:54;10.50;99.90
15107;DHT22;7654;45.308;-75.096;2023-09-30T07:07:25;10.40;99.90
15107;DHT22;7654;45.308;-75.096;2023-09-30T07:09:57;10.40;99.90
15107;DHT22;7654;45.308;-75.096;2023-09-30T07:12:28;10.40;99.90
15107;DHT22;7654;45.308;-75.096;2023-09-30T07:14:59;10.40;99.90
15107;DHT22;7654;45.308;-75.096;2023-09-30T07:17:30;10.40;99.90
15107;DHT22;7654;45.308;-75.096;2023-09-30T07:20:00;10.50;99.90
15107;DHT22;7654;45.308;-75.096;2023-09-30T07:22:34;10.50;99.90
15107;DHT22;7654;45.308;-75.096;2023-09-30T07:25:26;10.60;99.90
15107;DHT22;7654;45.308;-75.096;2023-09-30T07:28:00;10.60;99.90
15107;DHT22;7654;45.308;-75.096;2023-09-30T07:30:30;10.60;99.90
15107;DHT22;7654;45.308;-75.096;2023-09-30T07:33:01;10.70;99.90
15107;DHT22;7654;45.308;-75.096;2023-09-30T07:35:31;10.80;99.90
15107;DHT22;7654;45.308;-75.096;2023-09-30T07:38:04;10.90;99.90
15107;DHT22;7654;45.308;-75.096;2023-09-30T07:40:36;11.00;99.90
15107;DHT22;7654;45.308;-75.096;2023-09-30T07:43:06;10.90;99.90
15107;DHT22;7654;45.308;-75.096;2023-09-30T07:45:37;10.80;99.90
15107;DHT22;7654;45.308;-75.096;2023-09-30T07:48:07;10.70;99.90
15107;DHT22;7654;45.308;-75.096;2023-09-30T07:50:38;10.60;99.90
15107;DHT22;7654;45.308;-75.096;2023-09-30T07:53:09;10.50;99.90
15107;DHT22;7654;45.308;-75.096;2023-09-30T07:55:42;10.40;99.90
15107;DHT22;7654;45.308;-75.096;2023-09-30T07:58:12;10.30;99.90
15107;DHT22;7654;45.308;-75.096;2023-09-30T08:00:43;10.20;99.90
15107;DHT22;7654;45.308;-75.096;2023-09-30T08:03:13;10.10;99.90
15107;DHT22;7654;45.308;-75.096;2023-09-30T08:05:44;10.00;99.90
15107;DHT22;7654;45.308;-75.096;2023-09-30T08:08:15;10.00;99.90
15107;DHT22;7654;45.308;-75.096;2023-09-30T08:10:47;10.00;99.90
15107;DHT22;7654;45.308;-75.096;2023-09-30T08:13:17;9.90;99.90
15107;DHT22;7654;45.308;-75.096;2023-09-30T08:15:47;9.80;99.90
15107;DHT22;7654;45.308;-75.096;2023-09-30T08:18:18;9.80;99.90
15107;DHT22;7654;45.308;-75.096;2023-09-30T08:20:48;9.80;99.90
15107;DHT22;7654;45.308;-75.096;2023-09-30T08:23:19;9.90;99.90
15107;DHT22;7654;45.308;-75.096;2023-09-30T08:25:52;9.80;99.90
15107;DHT22;7654;45.308;-75.096;2023-09-30T08:28:22;9.80;99.90
15107;DHT22;7654;45.308;-75.096;2023-09-30T08:30:53;9.90;99.90
15107;DHT22;7654;45.308;-75.096;2023-09-30T08:33:27;9.90;99.90
15107;DHT22;7654;45.308;-75.096;2023-09-30T08:36:02;9.90;99.90
15107;DHT22;7654;45.308;-75.096;2023-09-30T08:38:36;10.00;99.90
15107;DHT22;7654;45.308;-75.096;2023-09-30T08:41:08;10.00;99.90
15107;DHT22;7654;45.308;-75.096;2023-09-30T08:43:39;10.10;99.90
15107;DHT22;7654;45.308;-75.096;2023-09-30T08:46:10;10.10;99.90
15107;DHT22;7654;45.308;-75.096;2023-09-30T08:48:40;10.10;99.90
15107;DHT22;7654;45.308;-75.096;2023-09-30T08:51:11;10.10;99.90
15107;DHT22;7654;45.308;-75.096;2023-09-30T08:53:42;10.10;99.90
15107;DHT22;7654;45.308;-75.096;2023-09-30T08:56:16;10.00;99.90
15107;DHT22;7654;45.308;-75.096;2023-09-30T08:58:47;10.00;99.90
15107;DHT22;7654;45.308;-75.096;2023-09-30T09:01:18;9.90;99.90
15107;DHT22;7654;45.308;-75.096;2023-09-30T09:03:48;9.80;99.90
15107;DHT22;7654;45.308;-75.096;2023-09-30T09:06:21;9.70;99.90
15107;DHT22;7654;45.308;-75.096;2023-09-30T09:08:52;9.60;99.90
15107;DHT22;7654;45.308;-75.096;2023-09-30T09:11:25;9.50;99.90
15107;DHT22;7654;45.308;-75.096;2023-09-30T09:13:55;9.50;99.90
15107;DHT22;7654;45.308;-75.096;2023-09-30T09:16:25;9.40;99.90
15107;DHT22;7654;45.308;-75.096;2023-09-30T09:18:56;9.40;99.90
15107;DHT22;7654;45.308;-75.096;2023-09-30T09:21:27;9.40;99.90
15107;DHT22;7654;45.308;-75.096;2023-09-30T09:23:59;9.30;99.90
15107;DHT22;7654;45.308;-75.096;2023-09-30T09:26:32;9.20;99.90
15107;DHT22;7654;45.308;-75.096;2023-09-30T09:29:04;9.30;99.90
15107;DHT22;7654;45.308;-75.096;2023-09-30T09:31:35;9.30;99.90
15107;DHT22;7654;45.308;-75.096;2023-09-30T09:34:14;9.30;99.90
15107;DHT22;7654;45.308;-75.096;2023-09-30T09:36:45;9.20;99.90
15107;DHT22;7654;45.308;-75.096;2023-09-30T09:39:16;9.10;99.90
15107;DHT22;7654;45.308;-75.096;2023-09-30T09:42:01;9.10;99.90
15107;DHT22;7654;45.308;-75.096;2023-09-30T09:44:31;9.00;99.90
15107;DHT22;7654;45.308;-75.096;2023-09-30T09:47:05;9.00;99.90
15107;DHT22;7654;45.308;-75.096;2023-09-30T09:49:36;9.00;99.90
15107;DHT22;7654;45.308;-75.096;2023-09-30T09:52:07;8.90;99.90
15107;DHT22;7654;45.308;-75.096;2023-09-30T09:54:40;8.90;99.90
15107;DHT22;7654;45.308;-75.096;2023-09-30T09:57:13;8.80;99.90
15107;DHT22;7654;45.308;-75.096;2023-09-30T09:59:44;8.80;99.90
15107;DHT22;7654;45.308;-75.096;2023-09-30T10:02:16;8.80;99.90
15107;DHT22;7654;45.308;-75.096;2023-09-30T10:04:47;8.80;99.90
15107;DHT22;7654;45.308;-75.096;2023-09-30T10:07:21;8.90;99.90
15107;DHT22;7654;45.308;-75.096;2023-09-30T10:09:53;8.90;99.90
15107;DHT22;7654;45.308;-75.096;2023-09-30T10:12:28;8.80;99.90
15107;DHT22;7654;45.308;-75.096;2023-09-30T10:15:01;8.80;99.90
15107;DHT22;7654;45.308;-75.096;2023-09-30T10:17:58;8.90;99.90
15107;DHT22;7654;45.308;-75.096;2023-09-30T10:20:29;9.00;99.90
15107;DHT22;7654;45.308;-75.096;2023-09-30T10:23:18;9.00;99.90
15107;DHT22;7654;45.308;-75.096;2023-09-30T10:25:49;9.10;99.90
15107;DHT22;7654;45.308;-75.096;2023-09-30T10:28:38;9.10;99.90
15107;DHT22;7654;45.308;-75.096;2023-09-30T10:31:10;9.00;99.90
15107;DHT22;7654;45.308;-75.096;2023-09-30T10:36:48;8.90;99.90
15107;DHT22;7654;45.308;-75.096;2023-09-30T10:39:55;8.90;99.90
15107;DHT22;7654;45.308;-75.096;2023-09-30T10:42:51;8.80;99.90
15107;DHT22;7654;45.308;-75.096;2023-09-30T10:45:46;8.70;99.90
15107;DHT22;7654;45.308;-75.096;2023-09-30T10:48:34;8.70;99.90
15107;DHT22;7654;45.308;-75.096;2023-09-30T10:51:12;8.70;99.90
15107;DHT22;7654;45.308;-75.096;2023-09-30T10:53:45;8.80;99.90
15107;DHT22;7654;45.308;-75.096;2023-09-30T10:56:16;8.90;99.90
15107;DHT22;7654;45.308;-75.096;2023-09-30T10:58:47;8.90;99.90
15107;DHT22;7654;45.308;-75.096;2023-09-30T11:01:21;8.90;99.90
15107;DHT22;7654;45.308;-75.096;2023-09-30T11:03:59;8.80;99.90
15107;DHT22;7654;45.308;-75.096;2023-09-30T11:06:32;8.70;99.90
15107;DHT22;7654;45.308;-75.096;2023-09-30T11:09:03;8.60;99.90
15107;DHT22;7654;45.308;-75.096;2023-09-30T11:11:38;8.50;99.90
15107;DHT22;7654;45.308;-75.096;2023-09-30T11:14:18;8.50;99.90
15107;DHT22;7654;45.308;-75.096;2023-09-30T11:16:53;8.40;99.90
15107;DHT22;7654;45.308;-75.096;2023-09-30T11:19:23;8.40;99.90
15107;DHT22;7654;45.308;-75.096;2023-09-30T11:21:55;8.40;99.90
15107;DHT22;7654;45.308;-75.096;2023-09-30T11:24:27;8.40;99.90
15107;DHT22;7654;45.308;-75.096;2023-09-30T11:26:59;8.60;99.90
15107;DHT22;7654;45.308;-75.096;2023-09-30T11:29:29;8.60;99.90
15107;DHT22;7654;45.308;-75.096;2023-09-30T11:32:01;8.60;99.90
15107;DHT22;7654;45.308;-75.096;2023-09-30T11:34:33;8.70;99.90
15107;DHT22;7654;45.308;-75.096;2023-09-30T11:37:04;8.80;99.90
15107;DHT22;7654;45.308;-75.096;2023-09-30T11:39:35;8.80;99.90
15107;DHT22;7654;45.308;-75.096;2023-09-30T11:42:15;8.80;99.90
15107;DHT22;7654;45.308;-75.096;2023-09-30T11:44:48;8.90;99.90
15107;DHT22;7654;45.308;-75.096;2023-09-30T11:47:30;9.00;99.90
15107;DHT22;7654;45.308;-75.096;2023-09-30T11:50:02;9.20;99.90
15107;DHT22;7654;45.308;-75.096;2023-09-30T11:52:33;9.40;99.90
15107;DHT22;7654;45.308;-75.096;2023-09-30T11:55:06;9.50;99.90
15107;DHT22;7654;45.308;-75.096;2023-09-30T11:57:36;9.50;99.90
15107;DHT22;7654;45.308;-75.096;2023-09-30T12:00:08;9.60;99.90
15107;DHT22;7654;45.308;-75.096;2023-09-30T12:02:43;9.70;99.90
15107;DHT22;7654;45.308;-75.096;2023-09-30T12:05:14;9.70;99.90
15107;DHT22;7654;45.308;-75.096;2023-09-30T12:07:45;9.90;99.90
15107;DHT22;7654;45.308;-75.096;2023-09-30T12:10:15;10.00;99.90
15107;DHT22;7654;45.308;-75.096;2023-09-30T12:12:45;10.10;99.90
15107;DHT22;7654;45.308;-75.096;2023-09-30T12:15:16;10.20;99.90
15107;DHT22;7654;45.308;-75.096;2023-09-30T12:17:52;10.40;99.90
15107;DHT22;7654;45.308;-75.096;2023-09-30T12:20:22;10.50;99.90
15107;DHT22;7654;45.308;-75.096;2023-09-30T12:22:53;10.70;99.90
15107;DHT22;7654;45.308;-75.096;2023-09-30T12:25:24;10.80;99.90
15107;DHT22;7654;45.308;-75.096;2023-09-30T12:27:54;11.00;99.90
15107;DHT22;7654;45.308;-75.096;2023-09-30T12:30:25;11.10;99.90
15107;DHT22;7654;45.308;-75.096;2023-09-30T12:32:57;11.20;99.90
15107;DHT22;7654;45.308;-75.096;2023-09-30T12:35:28;11.20;99.90
15107;DHT22;7654;45.308;-75.096;2023-09-30T12:37:58;11.30;99.90
15107;DHT22;7654;45.308;-75.096;2023-09-30T12:40:28;11.40;99.90
15107;DHT22;7654;45.308;-75.096;2023-09-30T12:42:59;11.50;99.90
15107;DHT22;7654;45.308;-75.096;2023-09-30T12:45:30;11.60;99.90
15107;DHT22;7654;45.308;-75.096;2023-09-30T12:48:01;11.80;99.90
15107;DHT22;7654;45.308;-75.096;2023-09-30T12:50:32;11.90;99.90
15107;DHT22;7654;45.308;-75.096;2023-09-30T12:53:03;12.00;99.90
15107;DHT22;7654;45.308;-75.096;2023-09-30T12:55:33;12.10;99.90
15107;DHT22;7654;45.308;-75.096;2023-09-30T12:58:04;12.20;99.90
15107;DHT22;7654;45.308;-75.096;2023-09-30T13:00:34;12.30;99.90
15107;DHT22;7654;45.308;-75.096;2023-09-30T13:03:07;12.40;99.90
15107;DHT22;7654;45.308;-75.096;2023-09-30T13:05:37;12.60;99.90
15107;DHT22;7654;45.308;-75.096;2023-09-30T13:08:10;12.80;99.90
15107;DHT22;7654;45.308;-75.096;2023-09-30T13:10:41;13.00;99.90
15107;DHT22;7654;45.308;-75.096;2023-09-30T13:13:12;13.10;99.90
15107;DHT22;7654;45.308;-75.096;2023-09-30T13:15:42;13.20;99.90
15107;DHT22;7654;45.308;-75.096;2023-09-30T13:18:14;13.30;99.90
15107;DHT22;7654;45.308;-75.096;2023-09-30T13:20:46;13.30;99.90
15107;DHT22;7654;45.308;-75.096;2023-09-30T13:23:17;13.40;99.90
15107;DHT22;7654;45.308;-75.096;2023-09-30T13:25:48;13.40;99.90
15107;DHT22;7654;45.308;-75.096;2023-09-30T13:28:18;13.40;99.90
15107;DHT22;7654;45.308;-75.096;2023-09-30T13:30:48;13.50;99.90
15107;DHT22;7654;45.308;-75.096;2023-09-30T13:33:21;13.60;99.90
15107;DHT22;7654;45.308;-75.096;2023-09-30T13:35:51;13.70;99.90
15107;DHT22;7654;45.308;-75.096;2023-09-30T13:38:24;13.70;99.90
15107;DHT22;7654;45.308;-75.096;2023-09-30T13:40:54;13.80;99.90
15107;DHT22;7654;45.308;-75.096;2023-09-30T13:43:24;13.90;99.90
15107;DHT22;7654;45.308;-75.096;2023-09-30T13:45:57;14.00;99.90
15107;DHT22;7654;45.308;-75.096;2023-09-30T13:48:29;14.10;99.90
15107;DHT22;7654;45.308;-75.096;2023-09-30T13:51:04;14.20;99.90
15107;DHT22;7654;45.308;-75.096;2023-09-30T13:53:35;14.30;99.90
15107;DHT22;7654;45.308;-75.096;2023-09-30T13:56:07;14.40;99.90
15107;DHT22;7654;45.308;-75.096;2023-09-30T13:58:38;14.40;99.90
15107;DHT22;7654;45.308;-75.096;2023-09-30T14:01:12;14.60;99.90
15107;DHT22;7654;45.308;-75.096;2023-09-30T14:03:44;14.70;99.90
15107;DHT22;7654;45.308;-75.096;2023-09-30T14:06:15;14.80;99.90
15107;DHT22;7654;45.308;-75.096;2023-09-30T14:08:46;15.00;99.90
15107;DHT22;7654;45.308;-75.096;2023-09-30T14:11:16;15.10;99.90
15107;DHT22;7654;45.308;-75.096;2023-09-30T14:13:47;15.20;99.90
15107;DHT22;7654;45.308;-75.096;2023-09-30T14:16:17;15.30;99.90
15107;DHT22;7654;45.308;-75.096;2023-09-30T14:18:50;15.40;99.90
15107;DHT22;7654;45.308;-75.096;2023-09-30T14:21:21;15.50;99.90
15107;DHT22;7654;45.308;-75.096;2023-09-30T14:23:52;15.60;99.90
15107;DHT22;7654;45.308;-75.096;2023-09-30T14:26:23;15.70;99.90
15107;DHT22;7654;45.308;-75.096;2023-09-30T14:28:54;15.90;99.90
15107;DHT22;7654;45.308;-75.096;2023-09-30T14:31:25;16.10;99.90
15107;DHT22;7654;45.308;-75.096;2023-09-30T14:33:58;16.20;99.90
15107;DHT22;7654;45.308;-75.096;2023-09-30T14:36:28;16.40;99.90
15107;DHT22;7654;45.308;-75.096;2023-09-30T14:39:00;16.50;99.90
15107;DHT22;7654;45.308;-75.096;2023-09-30T14:41:42;16.60;99.90
15107;DHT22;7654;45.308;-75.096;2023-09-30T14:44:12;16.80;99.90
15107;DHT22;7654;45.308;-75.096;2023-09-30T14:46:42;17.00;99.90
15107;DHT22;7654;45.308;-75.096;2023-09-30T14:49:15;17.10;99.90
15107;DHT22;7654;45.308;-75.096;2023-09-30T14:51:45;17.30;99.90
15107;DHT22;7654;45.308;-75.096;2023-09-30T14:54:17;17.40;99.90
15107;DHT22;7654;45.308;-75.096;2023-09-30T14:56:48;17.50;99.90
15107;DHT22;7654;45.308;-75.096;2023-09-30T14:59:18;17.70;99.90
15107;DHT22;7654;45.308;-75.096;2023-09-30T15:01:48;17.90;99.90
15107;DHT22;7654;45.308;-75.096;2023-09-30T15:04:23;18.10;99.90
15107;DHT22;7654;45.308;-75.096;2023-09-30T15:06:54;18.20;99.90
15107;DHT22;7654;45.308;-75.096;2023-09-30T15:09:24;18.30;99.90
15107;DHT22;7654;45.308;-75.096;2023-09-30T15:11:55;18.40;99.90
15107;DHT22;7654;45.308;-75.096;2023-09-30T15:14:26;18.60;99.90
15107;DHT22;7654;45.308;-75.096;2023-09-30T15:16:56;18.60;99.90
15107;DHT22;7654;45.308;-75.096;2023-09-30T15:19:28;18.80;99.90
15107;DHT22;7654;45.308;-75.096;2023-09-30T15:21:59;19.00;99.90
15107;DHT22;7654;45.308;-75.096;2023-09-30T15:24:30;19.10;99.90
15107;DHT22;7654;45.308;-75.096;2023-09-30T15:27:00;19.20;99.90
15107;DHT22;7654;45.308;-75.096;2023-09-30T15:29:31;19.40;99.90
15107;DHT22;7654;45.308;-75.096;2023-09-30T15:32:03;19.50;99.90
15107;DHT22;7654;45.308;-75.096;2023-09-30T15:34:36;19.60;99.90
15107;DHT22;7654;45.308;-75.096;2023-09-30T15:37:08;19.70;99.90
15107;DHT22;7654;45.308;-75.096;2023-09-30T15:39:40;19.70;99.90
15107;DHT22;7654;45.308;-75.096;2023-09-30T15:42:10;19.80;99.90
15107;DHT22;7654;45.308;-75.096;2023-09-30T15:44:41;20.00;99.90
15107;DHT22;7654;45.308;-75.096;2023-09-30T15:47:11;20.10;99.90
15107;DHT22;7654;45.308;-75.096;2023-09-30T15:49:43;20.20;99.90
15107;DHT22;7654;45.308;-75.096;2023-09-30T15:52:13;20.40;99.90